sensor_id;sensor_type;location;lat;lon;timestamp;pressure;altitude;pressure_sealevel;temperature;humidity
45523;BME280;31254;51.680;5.394;2022-07-23T00:00:28;101907.53;;;17.38;72.53
45523;BME280;31254;51.680;5.394;2022-07-23T00:03:04;101900.97;;;17.30;72.75
45523;BME280;31254;51.680;5.394;2022-07-23T00:05:32;101898.22;;;17.30;72.70
45523;BME280;31254;51.680;5.394;2022-07-23T00:08:00;101902.34;;;17.26;72.92
45523;BME280;31254;51.680;5.394;2022-07-23T00:10:30;101901.81;;;17.23;73.15
45523;BME280;31254;51.680;5.394;2022-07-23T00:12:59;101903.88;;;17.21;73.09
45523;BME280;31254;51.680;5.394;2022-07-23T00:15:25;101909.56;;;17.19;73.37
45523;BME280;31254;51.680;5.394;2022-07-23T00:17:52;101905.25;;;17.16;73.31
45523;BME280;31254;51.680;5.394;2022-07-23T00:20:19;101904.53;;;17.06;73.84
45523;BME280;31254;51.680;5.394;2022-07-23T00:22:58;101907.63;;;17.11;73.66
45523;BME280;31254;51.680;5.394;2022-07-23T00:25:26;101904.19;;;17.09;73.85
45523;BME280;31254;51.680;5.394;2022-07-23T00:27:56;101907.97;;;17.08;73.57
45523;BME280;31254;51.680;5.394;2022-07-23T00:30:25;101899.00;;;17.06;73.80
45523;BME280;31254;51.680;5.394;2022-07-23T00:33:01;101900.38;;;17.02;73.77
45523;BME280;31254;51.680;5.394;2022-07-23T00:35:30;101891.22;;;16.93;73.83
45523;BME280;31254;51.680;5.394;2022-07-23T00:38:01;101897.91;;;16.91;73.95
45523;BME280;31254;51.680;5.394;2022-07-23T00:40:29;101895.69;;;16.86;73.85
45523;BME280;31254;51.680;5.394;2022-07-23T00:42:56;101865.94;;;16.63;73.95
45523;BME280;31254;51.680;5.394;2022-07-23T00:45:28;101894.72;;;16.77;74.16
45523;BME280;31254;51.680;5.394;2022-07-23T00:47:56;101886.28;;;16.71;74.29
45523;BME280;31254;51.680;5.394;2022-07-23T00:50:23;101884.84;;;16.67;74.20
45523;BME280;31254;51.680;5.394;2022-07-23T00:52:50;101880.72;;;16.62;74.17
45523;BME280;31254;51.680;5.394;2022-07-23T00:55:17;101877.75;;;16.56;74.44
45523;BME280;31254;51.680;5.394;2022-07-23T00:57:43;101880.53;;;16.56;74.50
45523;BME280;31254;51.680;5.394;2022-07-23T01:00:13;101875.66;;;16.50;74.58
45523;BME280;31254;51.680;5.394;2022-07-23T01:02:40;101892.88;;;16.52;74.71
45523;BME280;31254;51.680;5.394;2022-07-23T01:05:07;101884.91;;;16.40;74.73
45523;BME280;31254;51.680;5.394;2022-07-23T01:07:37;101887.50;;;16.42;75.04
45523;BME280;31254;51.680;5.394;2022-07-23T01:10:05;101877.00;;;16.45;75.42
45523;BME280;31254;51.680;5.394;2022-07-23T01:12:54;101887.50;;;16.42;75.32
45523;BME280;31254;51.680;5.394;2022-07-23T01:15:27;101883.50;;;16.36;75.45
45523;BME280;31254;51.680;5.394;2022-07-23T01:17:56;101877.78;;;16.30;75.49
45523;BME280;31254;51.680;5.394;2022-07-23T01:20:22;101881.41;;;16.30;75.35
45523;BME280;31254;51.680;5.394;2022-07-23T01:22:50;101878.97;;;16.27;75.61
45523;BME280;31254;51.680;5.394;2022-07-23T01:25:17;101883.63;;;16.26;75.90
45523;BME280;31254;51.680;5.394;2022-07-23T01:27:44;101869.66;;;16.20;75.76
45523;BME280;31254;51.680;5.394;2022-07-23T01:30:13;101865.31;;;16.17;76.06
45523;BME280;31254;51.680;5.394;2022-07-23T01:32:43;101871.00;;;16.16;75.93
45523;BME280;31254;51.680;5.394;2022-07-23T01:35:09;101864.25;;;16.10;76.06
45523;BME280;31254;51.680;5.394;2022-07-23T01:37:36;101872.16;;;16.13;76.42
45523;BME280;31254;51.680;5.394;2022-07-23T01:40:06;101869.91;;;16.08;76.30
45523;BME280;31254;51.680;5.394;2022-07-23T01:42:33;101873.38;;;16.11;76.47
45523;BME280;31254;51.680;5.394;2022-07-23T01:45:05;101871.63;;;16.09;76.41
45523;BME280;31254;51.680;5.394;2022-07-23T01:47:34;101874.22;;;16.11;76.44
45523;BME280;31254;51.680;5.394;2022-07-23T01:50:01;101873.53;;;16.09;76.64
45523;BME280;31254;51.680;5.394;2022-07-23T01:52:27;101872.84;;;16.07;76.72
45523;BME280;31254;51.680;5.394;2022-07-23T01:54:56;101874.47;;;16.00;76.72
45523;BME280;31254;51.680;5.394;2022-07-23T01:57:23;101872.94;;;15.97;77.11
45523;BME280;31254;51.680;5.394;2022-07-23T01:59:52;101880.38;;;16.05;77.02
45523;BME280;31254;51.680;5.394;2022-07-23T02:02:18;101876.06;;;16.02;77.21
45523;BME280;31254;51.680;5.394;2022-07-23T02:04:45;101842.63;;;15.89;77.18
45523;BME280;31254;51.680;5.394;2022-07-23T02:07:17;101863.63;;;15.98;77.25
45523;BME280;31254;51.680;5.394;2022-07-23T02:09:46;101859.81;;;15.91;77.30
45523;BME280;31254;51.680;5.394;2022-07-23T02:12:14;101869.47;;;15.95;77.21
45523;BME280;31254;51.680;5.394;2022-07-23T02:14:43;101865.78;;;15.86;77.37
45523;BME280;31254;51.680;5.394;2022-07-23T02:17:13;101852.34;;;15.83;76.97
45523;BME280;31254;51.680;5.394;2022-07-23T02:19:39;101870.13;;;15.89;77.04
45523;BME280;31254;51.680;5.394;2022-07-23T02:22:06;101842.75;;;15.69;77.54
45523;BME280;31254;51.680;5.394;2022-07-23T02:24:33;101868.00;;;15.83;77.35
45523;BME280;31254;51.680;5.394;2022-07-23T02:27:01;101868.31;;;15.80;77.36
45523;BME280;31254;51.680;5.394;2022-07-23T02:29:30;101865.03;;;15.76;77.21
45523;BME280;31254;51.680;5.394;2022-07-23T02:31:57;101862.88;;;15.70;77.26
45523;BME280;31254;51.680;5.394;2022-07-23T02:34:23;101874.75;;;15.70;77.56
45523;BME280;31254;51.680;5.394;2022-07-23T02:36:50;101882.28;;;15.68;77.79
45523;BME280;31254;51.680;5.394;2022-07-23T02:39:17;101872.63;;;15.64;77.79
45523;BME280;31254;51.680;5.394;2022-07-23T02:41:46;101871.59;;;15.65;77.88
45523;BME280;31254;51.680;5.394;2022-07-23T02:44:15;101877.09;;;15.65;78.01
45523;BME280;31254;51.680;5.394;2022-07-23T02:46:44;101879.00;;;15.65;78.05
45523;BME280;31254;51.680;5.394;2022-07-23T02:49:13;101883.63;;;15.64;78.24
45523;BME280;31254;51.680;5.394;2022-07-23T02:51:39;101875.53;;;15.63;78.25
45523;BME280;31254;51.680;5.394;2022-07-23T02:54:06;101869.09;;;15.54;78.33
45523;BME280;31254;51.680;5.394;2022-07-23T02:56:33;101884.44;;;15.57;78.16
45523;BME280;31254;51.680;5.394;2022-07-23T02:58:59;101866.75;;;15.41;78.40
45523;BME280;31254;51.680;5.394;2022-07-23T03:01:26;101875.38;;;15.46;78.48
45523;BME280;31254;51.680;5.394;2022-07-23T03:03:53;101865.72;;;15.42;79.06
45523;BME280;31254;51.680;5.394;2022-07-23T03:06:22;101877.19;;;15.38;78.84
45523;BME280;31254;51.680;5.394;2022-07-23T03:08:51;101876.88;;;15.41;79.01
45523;BME280;31254;51.680;5.394;2022-07-23T03:11:18;101888.19;;;15.38;79.07
45523;BME280;31254;51.680;5.394;2022-07-23T03:13:44;101890.94;;;15.38;79.51
45523;BME280;31254;51.680;5.394;2022-07-23T03:16:11;101891.66;;;15.40;79.28
45523;BME280;31254;51.680;5.394;2022-07-23T03:18:40;101899.19;;;15.38;79.60
45523;BME280;31254;51.680;5.394;2022-07-23T03:21:08;101901.78;;;15.39;79.58
45523;BME280;31254;51.680;5.394;2022-07-23T03:23:39;101880.25;;;15.34;79.67
45523;BME280;31254;51.680;5.394;2022-07-23T03:26:06;101894.38;;;15.40;79.46
45523;BME280;31254;51.680;5.394;2022-07-23T03:28:33;101894.38;;;15.40;79.55
45523;BME280;31254;51.680;5.394;2022-07-23T03:30:59;101898.00;;;15.40;79.47
45523;BME280;31254;51.680;5.394;2022-07-23T03:33:28;101899.03;;;15.39;79.82
45523;BME280;31254;51.680;5.394;2022-07-23T03:35:55;101896.28;;;15.39;79.75
45523;BME280;31254;51.680;5.394;2022-07-23T03:38:21;101897.28;;;15.38;79.80
45523;BME280;31254;51.680;5.394;2022-07-23T03:40:49;101904.69;;;15.38;79.78
45523;BME280;31254;51.680;5.394;2022-07-23T03:43:15;101890.25;;;15.35;79.60
45523;BME280;31254;51.680;5.394;2022-07-23T03:45:42;101889.50;;;15.33;80.20
45523;BME280;31254;51.680;5.394;2022-07-23T03:48:11;101897.28;;;15.38;79.65
45523;BME280;31254;51.680;5.394;2022-07-23T03:50:38;101887.81;;;15.32;79.91
45523;BME280;31254;51.680;5.394;2022-07-23T03:53:04;101898.81;;;15.32;79.74
45523;BME280;31254;51.680;5.394;2022-07-23T03:55:31;101887.38;;;15.27;79.77
45523;BME280;31254;51.680;5.394;2022-07-23T03:57:57;101889.81;;;15.30;79.58
45523;BME280;31254;51.680;5.394;2022-07-23T04:00:26;101898.06;;;15.30;79.76
45523;BME280;31254;51.680;5.394;2022-07-23T04:02:53;101899.56;;;15.25;79.83
45523;BME280;31254;51.680;5.394;2022-07-23T04:05:19;101902.00;;;15.28;79.10
45523;BME280;31254;51.680;5.394;2022-07-23T04:07:49;101900.59;;;15.24;79.41
45523;BME280;31254;51.680;5.394;2022-07-23T04:10:16;101906.53;;;15.19;79.60
45523;BME280;31254;51.680;5.394;2022-07-23T04:12:45;101909.28;;;15.19;79.33
45523;BME280;31254;51.680;5.394;2022-07-23T04:15:11;101909.28;;;15.19;79.49
45523;BME280;31254;51.680;5.394;2022-07-23T04:17:43;101898.59;;;15.16;79.49
45523;BME280;31254;51.680;5.394;2022-07-23T04:20:15;101888.09;;;15.11;79.54
45523;BME280;31254;51.680;5.394;2022-07-23T04:22:42;101909.72;;;15.24;79.47
45523;BME280;31254;51.680;5.394;2022-07-23T04:25:09;101904.22;;;15.24;79.06
45523;BME280;31254;51.680;5.394;2022-07-23T04:27:36;101912.28;;;15.26;79.40
45523;BME280;31254;51.680;5.394;2022-07-23T04:30:02;101900.44;;;15.25;79.26
45523;BME280;31254;51.680;5.394;2022-07-23T04:32:29;101905.00;;;15.34;79.37
45523;BME280;31254;51.680;5.394;2022-07-23T04:34:56;101912.88;;;15.47;79.13
45523;BME280;31254;51.680;5.394;2022-07-23T04:37:22;101909.19;;;15.57;79.05
45523;BME280;31254;51.680;5.394;2022-07-23T04:39:51;101911.44;;;15.61;78.75
45523;BME280;31254;51.680;5.394;2022-07-23T04:42:18;101913.03;;;15.64;79.00
45523;BME280;31254;51.680;5.394;2022-07-23T04:44:47;101920.34;;;15.73;78.98
45523;BME280;31254;51.680;5.394;2022-07-23T04:47:15;101922.50;;;15.79;78.87
45523;BME280;31254;51.680;5.394;2022-07-23T04:49:42;101927.56;;;15.92;78.88
45523;BME280;31254;51.680;5.394;2022-07-23T04:52:11;101930.94;;;16.04;78.82
45523;BME280;31254;51.680;5.394;2022-07-23T04:54:38;101937.06;;;16.16;78.55
45523;BME280;31254;51.680;5.394;2022-07-23T04:57:06;101935.06;;;16.26;78.27
45523;BME280;31254;51.680;5.394;2022-07-23T04:59:33;101932.75;;;16.39;77.74
45523;BME280;31254;51.680;5.394;2022-07-23T05:02:00;101936.94;;;16.52;77.43
45523;BME280;31254;51.680;5.394;2022-07-23T05:04:26;101931.69;;;17.44;74.84
45523;BME280;31254;51.680;5.394;2022-07-23T05:06:53;101927.22;;;19.37;68.55
45523;BME280;31254;51.680;5.394;2022-07-23T05:09:20;101921.75;;;20.89;63.89
45523;BME280;31254;51.680;5.394;2022-07-23T05:11:46;101911.91;;;22.03;60.45
45523;BME280;31254;51.680;5.394;2022-07-23T05:14:13;101912.97;;;22.87;58.55
45523;BME280;31254;51.680;5.394;2022-07-23T05:16:43;101917.13;;;23.66;56.61
45523;BME280;31254;51.680;5.394;2022-07-23T05:19:09;101914.16;;;24.41;54.19
45523;BME280;31254;51.680;5.394;2022-07-23T05:21:36;101919.13;;;25.24;52.35
45523;BME280;31254;51.680;5.394;2022-07-23T05:24:03;101924.69;;;25.69;51.82
45523;BME280;31254;51.680;5.394;2022-07-23T05:26:29;101911.47;;;26.15;50.06
45523;BME280;31254;51.680;5.394;2022-07-23T05:28:56;101911.72;;;26.76;48.62
45523;BME280;31254;51.680;5.394;2022-07-23T05:31:23;101926.03;;;27.23;47.79
45523;BME280;31254;51.680;5.394;2022-07-23T05:33:52;101926.88;;;27.42;47.08
45523;BME280;31254;51.680;5.394;2022-07-23T05:36:19;101944.56;;;28.27;45.11
45523;BME280;31254;51.680;5.394;2022-07-23T05:38:46;101940.31;;;28.72;44.40
45523;BME280;31254;51.680;5.394;2022-07-23T05:41:14;101948.19;;;29.10;43.83
45523;BME280;31254;51.680;5.394;2022-07-23T05:43:43;101939.94;;;28.92;43.75
45523;BME280;31254;51.680;5.394;2022-07-23T05:46:11;101939.81;;;28.75;43.91
45523;BME280;31254;51.680;5.394;2022-07-23T05:48:38;101938.50;;;28.77;43.31
45523;BME280;31254;51.680;5.394;2022-07-23T05:51:04;101943.06;;;29.07;42.40
45523;BME280;31254;51.680;5.394;2022-07-23T05:53:35;101939.50;;;29.35;42.07
45523;BME280;31254;51.680;5.394;2022-07-23T05:56:02;101944.75;;;29.61;41.62
45523;BME280;31254;51.680;5.394;2022-07-23T05:58:31;101941.84;;;29.56;41.30
45523;BME280;31254;51.680;5.394;2022-07-23T06:01:03;101941.59;;;29.57;40.96
45523;BME280;31254;51.680;5.394;2022-07-23T06:03:32;101940.84;;;29.62;41.29
45523;BME280;31254;51.680;5.394;2022-07-23T06:06:01;101948.69;;;29.60;40.90
45523;BME280;31254;51.680;5.394;2022-07-23T06:08:27;101949.81;;;29.76;40.35
45523;BME280;31254;51.680;5.394;2022-07-23T06:10:54;101946.31;;;29.97;40.05
45523;BME280;31254;51.680;5.394;2022-07-23T06:13:20;101952.00;;;30.19;39.50
45523;BME280;31254;51.680;5.394;2022-07-23T06:15:47;101946.50;;;30.24;39.58
45523;BME280;31254;51.680;5.394;2022-07-23T06:18:14;101961.41;;;30.08;39.73
45523;BME280;31254;51.680;5.394;2022-07-23T06:20:41;101959.91;;;29.60;39.04
45523;BME280;31254;51.680;5.394;2022-07-23T06:23:07;101957.25;;;31.01;37.01
45523;BME280;31254;51.680;5.394;2022-07-23T06:25:34;101957.00;;;30.85;37.18
45523;BME280;31254;51.680;5.394;2022-07-23T06:28:01;101957.06;;;30.51;37.62
45523;BME280;31254;51.680;5.394;2022-07-23T06:30:27;101934.97;;;30.43;37.80
45523;BME280;31254;51.680;5.394;2022-07-23T06:32:57;101952.22;;;30.86;37.10
45523;BME280;31254;51.680;5.394;2022-07-23T06:35:28;101959.09;;;30.22;37.05
45523;BME280;31254;51.680;5.394;2022-07-23T06:37:56;101963.00;;;30.72;36.56
45523;BME280;31254;51.680;5.394;2022-07-23T06:40:24;101965.41;;;30.63;36.68
45523;BME280;31254;51.680;5.394;2022-07-23T06:42:51;101964.00;;;30.99;36.36
45523;BME280;31254;51.680;5.394;2022-07-23T06:45:18;101963.88;;;31.33;36.09
45523;BME280;31254;51.680;5.394;2022-07-23T06:47:44;101959.09;;;31.12;36.02
45523;BME280;31254;51.680;5.394;2022-07-23T06:50:11;101963.75;;;31.23;35.79
45523;BME280;31254;51.680;5.394;2022-07-23T06:52:38;101951.34;;;31.24;35.90
45523;BME280;31254;51.680;5.394;2022-07-23T06:55:11;101953.56;;;31.66;35.69
45523;BME280;31254;51.680;5.394;2022-07-23T06:57:38;101948.19;;;31.43;35.63
45523;BME280;31254;51.680;5.394;2022-07-23T07:00:05;101954.75;;;32.03;34.53
45523;BME280;31254;51.680;5.394;2022-07-23T07:02:32;101963.00;;;32.74;33.21
45523;BME280;31254;51.680;5.394;2022-07-23T07:04:59;101953.81;;;32.62;33.86
45523;BME280;31254;51.680;5.394;2022-07-23T07:07:31;101952.59;;;32.48;33.87
45523;BME280;31254;51.680;5.394;2022-07-23T07:09:57;101966.16;;;32.51;33.54
45523;BME280;31254;51.680;5.394;2022-07-23T07:12:24;101971.47;;;32.74;33.68
45523;BME280;31254;51.680;5.394;2022-07-23T07:14:51;101964.72;;;32.80;33.50
45523;BME280;31254;51.680;5.394;2022-07-23T07:17:17;101965.72;;;33.12;31.35
45523;BME280;31254;51.680;5.394;2022-07-23T07:19:46;101964.75;;;33.39;30.90
45523;BME280;31254;51.680;5.394;2022-07-23T07:22:13;101955.47;;;34.92;29.39
45523;BME280;31254;51.680;5.394;2022-07-23T07:24:42;101956.09;;;33.92;30.83
45523;BME280;31254;51.680;5.394;2022-07-23T07:27:09;101963.59;;;33.34;31.09
45523;BME280;31254;51.680;5.394;2022-07-23T07:29:35;101967.03;;;33.57;30.65
45523;BME280;31254;51.680;5.394;2022-07-23T07:32:02;101954.38;;;34.68;29.76
45523;BME280;31254;51.680;5.394;2022-07-23T07:34:33;101959.38;;;35.77;28.61
45523;BME280;31254;51.680;5.394;2022-07-23T07:37:00;101966.66;;;35.39;28.95
45523;BME280;31254;51.680;5.394;2022-07-23T07:39:27;101963.03;;;36.17;28.09
45523;BME280;31254;51.680;5.394;2022-07-23T07:41:53;101974.03;;;36.58;27.29
45523;BME280;31254;51.680;5.394;2022-07-23T07:44:22;101966.72;;;35.28;27.55
45523;BME280;31254;51.680;5.394;2022-07-23T07:46:49;101966.16;;;35.31;27.63
45523;BME280;31254;51.680;5.394;2022-07-23T07:49:15;101975.09;;;34.78;28.54
45523;BME280;31254;51.680;5.394;2022-07-23T07:51:47;101971.41;;;34.63;28.38
45523;BME280;31254;51.680;5.394;2022-07-23T07:54:14;101973.09;;;34.53;28.45
45523;BME280;31254;51.680;5.394;2022-07-23T07:56:40;101971.69;;;33.99;29.02
45523;BME280;31254;51.680;5.394;2022-07-23T07:59:11;101948.75;;;34.63;28.42
45523;BME280;31254;51.680;5.394;2022-07-23T08:01:39;101975.66;;;34.50;28.82
45523;BME280;31254;51.680;5.394;2022-07-23T08:04:06;101970.56;;;34.47;28.45
45523;BME280;31254;51.680;5.394;2022-07-23T08:06:32;101980.47;;;34.70;28.48
45523;BME280;31254;51.680;5.394;2022-07-23T08:09:02;101985.28;;;34.43;28.59
45523;BME280;31254;51.680;5.394;2022-07-23T08:11:31;101992.47;;;33.47;29.16
45523;BME280;31254;51.680;5.394;2022-07-23T08:13:57;102002.91;;;33.41;29.48
45523;BME280;31254;51.680;5.394;2022-07-23T08:16:24;101993.06;;;33.64;29.27
45523;BME280;31254;51.680;5.394;2022-07-23T08:18:51;101990.38;;;34.16;28.95
45523;BME280;31254;51.680;5.394;2022-07-23T08:21:17;101990.09;;;34.69;28.13
45523;BME280;31254;51.680;5.394;2022-07-23T08:23:44;101987.81;;;34.04;28.90
45523;BME280;31254;51.680;5.394;2022-07-23T08:26:11;101993.16;;;33.80;28.98
45523;BME280;31254;51.680;5.394;2022-07-23T08:28:38;102004.94;;;32.98;30.21
45523;BME280;31254;51.680;5.394;2022-07-23T08:31:05;102000.69;;;32.95;30.30
45523;BME280;31254;51.680;5.394;2022-07-23T08:33:34;101996.81;;;33.80;29.55
45523;BME280;31254;51.680;5.394;2022-07-23T08:36:02;101997.75;;;34.53;28.33
45523;BME280;31254;51.680;5.394;2022-07-23T08:38:31;101998.03;;;34.25;28.47
45523;BME280;31254;51.680;5.394;2022-07-23T08:40:58;102006.63;;;33.57;29.51
45523;BME280;31254;51.680;5.394;2022-07-23T08:43:28;102008.75;;;32.76;30.61
45523;BME280;31254;51.680;5.394;2022-07-23T08:45:57;102007.59;;;30.12;33.99
45523;BME280;31254;51.680;5.394;2022-07-23T08:48:29;102016.13;;;29.60;34.74
45523;BME280;31254;51.680;5.394;2022-07-23T08:50:58;102007.91;;;29.17;35.35
45523;BME280;31254;51.680;5.394;2022-07-23T08:53:28;102015.38;;;29.00;36.59
45523;BME280;31254;51.680;5.394;2022-07-23T08:55:57;102019.78;;;29.20;36.27
45523;BME280;31254;51.680;5.394;2022-07-23T08:58:25;101985.53;;;27.86;37.88
45523;BME280;31254;51.680;5.394;2022-07-23T09:00:54;102016.72;;;29.09;35.88
45523;BME280;31254;51.680;5.394;2022-07-23T09:03:25;102012.44;;;29.71;35.25
45523;BME280;31254;51.680;5.394;2022-07-23T09:05:53;102006.34;;;30.37;34.65
45523;BME280;31254;51.680;5.394;2022-07-23T09:08:24;102011.88;;;30.32;34.21
45523;BME280;31254;51.680;5.394;2022-07-23T09:10:52;102008.50;;;30.01;33.84
45523;BME280;31254;51.680;5.394;2022-07-23T09:15:57;102003.59;;;30.93;32.44
45523;BME280;31254;51.680;5.394;2022-07-23T09:18:30;101990.78;;;31.24;31.75
45523;BME280;31254;51.680;5.394;2022-07-23T09:29:13;101988.44;;;27.49;37.51
45523;BME280;31254;51.680;5.394;2022-07-23T09:31:57;101996.88;;;28.21;36.04
45523;BME280;31254;51.680;5.394;2022-07-23T09:34:35;101997.22;;;28.79;35.83
45523;BME280;31254;51.680;5.394;2022-07-23T09:37:13;102001.00;;;28.61;36.47
45523;BME280;31254;51.680;5.394;2022-07-23T09:39:41;102004.13;;;29.35;34.74
45523;BME280;31254;51.680;5.394;2022-07-23T09:44:47;101998.75;;;29.34;35.17
45523;BME280;31254;51.680;5.394;2022-07-23T09:47:15;101995.44;;;29.25;36.32
45523;BME280;31254;51.680;5.394;2022-07-23T09:50:01;101986.06;;;28.49;37.04
45523;BME280;31254;51.680;5.394;2022-07-23T09:52:33;102006.16;;;28.34;37.12
45523;BME280;31254;51.680;5.394;2022-07-23T09:55:05;102009.03;;;28.69;37.31
45523;BME280;31254;51.680;5.394;2022-07-23T09:57:32;102014.91;;;28.79;37.13
45523;BME280;31254;51.680;5.394;2022-07-23T10:00:05;102004.78;;;28.13;38.81
45523;BME280;31254;51.680;5.394;2022-07-23T10:02:38;102004.78;;;28.13;38.97
45523;BME280;31254;51.680;5.394;2022-07-23T10:05:09;102006.53;;;28.37;38.30
45523;BME280;31254;51.680;5.394;2022-07-23T10:07:37;102001.31;;;27.68;39.77
45523;BME280;31254;51.680;5.394;2022-07-23T10:10:06;102006.25;;;27.85;39.05
45523;BME280;31254;51.680;5.394;2022-07-23T10:12:36;101993.06;;;28.04;39.28
45523;BME280;31254;51.680;5.394;2022-07-23T10:15:22;102006.97;;;27.80;40.31
45523;BME280;31254;51.680;5.394;2022-07-23T10:17:49;102008.25;;;28.38;38.77
45523;BME280;31254;51.680;5.394;2022-07-23T10:20:16;102006.69;;;28.00;38.46
45523;BME280;31254;51.680;5.394;2022-07-23T10:23:05;102006.84;;;27.75;39.21
45523;BME280;31254;51.680;5.394;2022-07-23T10:28:37;102002.59;;;28.26;38.20
45523;BME280;31254;51.680;5.394;2022-07-23T10:36:40;102001.09;;;28.00;38.41
45523;BME280;31254;51.680;5.394;2022-07-23T10:39:17;101997.94;;;27.78;38.45
45523;BME280;31254;51.680;5.394;2022-07-23T10:41:45;102003.53;;;28.08;38.26
45523;BME280;31254;51.680;5.394;2022-07-23T10:46:59;102004.28;;;28.93;37.78
45523;BME280;31254;51.680;5.394;2022-07-23T10:49:35;101996.81;;;28.99;37.66
45523;BME280;31254;51.680;5.394;2022-07-23T10:57:27;101995.19;;;29.79;36.78
45523;BME280;31254;51.680;5.394;2022-07-23T11:02:34;102000.91;;;30.01;36.31
45523;BME280;31254;51.680;5.394;2022-07-23T11:05:04;102003.41;;;29.98;36.37
45523;BME280;31254;51.680;5.394;2022-07-23T11:07:33;102005.28;;;30.09;36.02
45523;BME280;31254;51.680;5.394;2022-07-23T11:10:01;101993.03;;;30.15;36.42
45523;BME280;31254;51.680;5.394;2022-07-23T11:15:12;101987.66;;;30.65;35.36
45523;BME280;31254;51.680;5.394;2022-07-23T11:25:13;101992.56;;;30.52;35.60
45523;BME280;31254;51.680;5.394;2022-07-23T11:27:44;101988.28;;;30.67;33.96
45523;BME280;31254;51.680;5.394;2022-07-23T11:33:15;101977.97;;;29.64;34.44
45523;BME280;31254;51.680;5.394;2022-07-23T11:35:46;101985.22;;;29.19;35.08
45523;BME280;31254;51.680;5.394;2022-07-23T11:38:19;101986.81;;;28.91;35.60
45523;BME280;31254;51.680;5.394;2022-07-23T11:40:50;101981.09;;;28.98;35.77
45523;BME280;31254;51.680;5.394;2022-07-23T11:43:18;101986.91;;;29.20;35.63
45523;BME280;31254;51.680;5.394;2022-07-23T11:45:51;101990.91;;;29.36;35.51
45523;BME280;31254;51.680;5.394;2022-07-23T11:48:24;101992.28;;;29.22;35.07
45523;BME280;31254;51.680;5.394;2022-07-23T11:50:55;101986.06;;;29.20;35.98
45523;BME280;31254;51.680;5.394;2022-07-23T11:53:29;101990.81;;;29.31;35.32
45523;BME280;31254;51.680;5.394;2022-07-23T11:56:08;101981.13;;;29.67;35.04
45523;BME280;31254;51.680;5.394;2022-07-23T11:58:40;101980.06;;;30.14;34.63
45523;BME280;31254;51.680;5.394;2022-07-23T12:01:22;101982.19;;;30.07;34.48
45523;BME280;31254;51.680;5.394;2022-07-23T12:03:51;101974.38;;;29.80;34.23
45523;BME280;31254;51.680;5.394;2022-07-23T12:06:21;101977.59;;;29.31;34.67
45523;BME280;31254;51.680;5.394;2022-07-23T12:08:48;101985.22;;;28.95;35.08
45523;BME280;31254;51.680;5.394;2022-07-23T12:11:15;101977.75;;;29.01;35.44
45523;BME280;31254;51.680;5.394;2022-07-23T12:13:42;101978.50;;;29.08;34.89
45523;BME280;31254;51.680;5.394;2022-07-23T12:16:08;101975.47;;;28.98;35.03
45523;BME280;31254;51.680;5.394;2022-07-23T12:18:35;101982.03;;;29.04;34.89
45523;BME280;31254;51.680;5.394;2022-07-23T12:21:03;101971.44;;;29.46;34.71
45523;BME280;31254;51.680;5.394;2022-07-23T12:23:35;101976.66;;;29.54;34.42
45523;BME280;31254;51.680;5.394;2022-07-23T12:26:04;101982.88;;;29.28;34.70
45523;BME280;31254;51.680;5.394;2022-07-23T12:28:33;101979.22;;;29.04;35.24
45523;BME280;31254;51.680;5.394;2022-07-23T12:31:00;101974.19;;;29.29;34.90
45523;BME280;31254;51.680;5.394;2022-07-23T12:33:33;101976.97;;;29.70;35.22
45523;BME280;31254;51.680;5.394;2022-07-23T12:36:03;101970.06;;;29.89;33.75
45523;BME280;31254;51.680;5.394;2022-07-23T12:38:46;101963.25;;;29.73;34.27
45523;BME280;31254;51.680;5.394;2022-07-23T12:41:17;101960.50;;;29.62;34.26
45523;BME280;31254;51.680;5.394;2022-07-23T12:43:45;101954.69;;;29.80;34.12
45523;BME280;31254;51.680;5.394;2022-07-23T12:46:14;101945.75;;;29.83;33.65
45523;BME280;31254;51.680;5.394;2022-07-23T12:51:25;101945.72;;;30.12;33.82
45523;BME280;31254;51.680;5.394;2022-07-23T12:53:56;101945.13;;;30.10;33.73
45523;BME280;31254;51.680;5.394;2022-07-23T12:56:31;101950.03;;;30.37;33.64
45523;BME280;31254;51.680;5.394;2022-07-23T12:59:05;101948.72;;;30.39;33.43
45523;BME280;31254;51.680;5.394;2022-07-23T13:01:44;101937.94;;;30.36;33.35
45523;BME280;31254;51.680;5.394;2022-07-23T13:04:21;101946.50;;;30.24;33.56
45523;BME280;31254;51.680;5.394;2022-07-23T13:06:53;101954.72;;;29.68;34.51
45523;BME280;31254;51.680;5.394;2022-07-23T13:09:23;101929.19;;;29.41;34.72
45523;BME280;31254;51.680;5.394;2022-07-23T13:11:51;101953.38;;;29.42;35.34
45523;BME280;31254;51.680;5.394;2022-07-23T13:14:23;101949.84;;;29.35;35.23
45523;BME280;31254;51.680;5.394;2022-07-23T13:16:53;101947.28;;;29.45;35.01
45523;BME280;31254;51.680;5.394;2022-07-23T13:19:22;101956.06;;;29.66;34.53
45523;BME280;31254;51.680;5.394;2022-07-23T13:21:51;101954.47;;;29.70;34.52
45523;BME280;31254;51.680;5.394;2022-07-23T13:24:20;101921.72;;;29.76;33.75
45523;BME280;31254;51.680;5.394;2022-07-23T13:26:47;101945.63;;;30.07;33.96
45523;BME280;31254;51.680;5.394;2022-07-23T13:29:18;101944.44;;;30.20;33.99
45523;BME280;31254;51.680;5.394;2022-07-23T13:31:45;101950.94;;;30.37;33.82
45523;BME280;31254;51.680;5.394;2022-07-23T13:34:13;101941.72;;;30.59;34.02
45523;BME280;31254;51.680;5.394;2022-07-23T13:36:39;101946.25;;;30.60;33.22
45523;BME280;31254;51.680;5.394;2022-07-23T13:39:06;101944.06;;;30.67;33.08
45523;BME280;31254;51.680;5.394;2022-07-23T13:41:36;101928.38;;;30.71;33.57
45523;BME280;31254;51.680;5.394;2022-07-23T13:44:04;101933.44;;;30.91;33.14
45523;BME280;31254;51.680;5.394;2022-07-23T13:46:34;101921.50;;;30.84;33.29